sensor_id;sensor_type;location;lat;lon;timestamp;pressure;altitude;pressure_sealevel;temperature;humidity
56334;BME280;42240;53.626;55.886;2023-08-30T00:00:02;74702.44;;;-145.10;100.00
56334;BME280;42240;53.626;55.886;2023-08-30T00:01:56;74702.44;;;-145.10;100.00
56334;BME280;42240;53.626;55.886;2023-08-30T00:03:47;74716.28;;;-145.10;100.00
56334;BME280;42240;53.626;55.886;2023-08-30T00:05:39;74720.25;;;-145.10;100.00
56334;BME280;42240;53.626;55.886;2023-08-30T00:07:30;74718.25;;;-145.10;100.00
56334;BME280;42240;53.626;55.886;2023-08-30T00:09:22;74714.31;;;-145.10;100.00
56334;BME280;42240;53.626;55.886;2023-08-30T00:11:13;74718.25;;;-145.10;100.00
56334;BME280;42240;53.626;55.886;2023-08-30T00:13:04;74714.31;;;-145.10;100.00
56334;BME280;42240;53.626;55.886;2023-08-30T00:14:56;74710.34;;;-145.10;100.00
56334;BME280;42240;53.626;55.886;2023-08-30T00:16:47;74712.34;;;-145.10;100.00
56334;BME280;42240;53.626;55.886;2023-08-30T00:18:39;74708.38;;;-145.10;100.00
56334;BME280;42240;53.626;55.886;2023-08-30T00:20:30;74706.41;;;-145.10;100.00
56334;BME280;42240;53.626;55.886;2023-08-30T00:22:21;74702.44;;;-145.10;100.00
56334;BME280;42240;53.626;55.886;2023-08-30T00:24:13;74710.34;;;-145.10;100.00
56334;BME280;42240;53.626;55.886;2023-08-30T00:26:04;74714.31;;;-145.10;100.00
56334;BME280;42240;53.626;55.886;2023-08-30T00:27:55;74710.34;;;-145.10;100.00
56334;BME280;42240;53.626;55.886;2023-08-30T00:29:47;74706.41;;;-145.10;100.00
56334;BME280;42240;53.626;55.886;2023-08-30T00:31:38;74700.47;;;-145.10;100.00
56334;BME280;42240;53.626;55.886;2023-08-30T00:33:29;74690.59;;;-145.10;100.00
56334;BME280;42240;53.626;55.886;2023-08-30T00:35:21;74688.63;;;-145.10;100.00
56334;BME280;42240;53.626;55.886;2023-08-30T00:37:14;74686.63;;;-145.10;100.00
56334;BME280;42240;53.626;55.886;2023-08-30T00:39:05;74688.63;;;-145.10;100.00
56334;BME280;42240;53.626;55.886;2023-08-30T00:40:56;74696.53;;;-145.10;100.00
56334;BME280;42240;53.626;55.886;2023-08-30T00:42:48;74692.56;;;-145.10;100.00
56334;BME280;42240;53.626;55.886;2023-08-30T00:44:39;74694.53;;;-145.10;100.00
56334;BME280;42240;53.626;55.886;2023-08-30T00:46:32;74686.63;;;-145.10;100.00
56334;BME280;42240;53.626;55.886;2023-08-30T00:48:24;74686.63;;;-145.10;100.00
56334;BME280;42240;53.626;55.886;2023-08-30T00:50:16;74686.63;;;-145.10;100.00
56334;BME280;42240;53.626;55.886;2023-08-30T00:52:07;74690.59;;;-145.10;100.00
56334;BME280;42240;53.626;55.886;2023-08-30T00:53:59;74684.66;;;-145.10;100.00
56334;BME280;42240;53.626;55.886;2023-08-30T00:55:50;74688.63;;;-145.10;100.00
56334;BME280;42240;53.626;55.886;2023-08-30T00:57:42;74690.59;;;-145.10;100.00
56334;BME280;42240;53.626;55.886;2023-08-30T00:59:36;74690.59;;;-145.10;100.00
56334;BME280;42240;53.626;55.886;2023-08-30T01:01:28;74686.63;;;-145.10;100.00
56334;BME280;42240;53.626;55.886;2023-08-30T01:03:19;74686.63;;;-145.10;100.00
56334;BME280;42240;53.626;55.886;2023-08-30T01:05:12;74686.63;;;-145.10;100.00
56334;BME280;42240;53.626;55.886;2023-08-30T01:07:06;74684.66;;;-145.10;100.00
56334;BME280;42240;53.626;55.886;2023-08-30T01:08:57;74690.59;;;-145.10;100.00
56334;BME280;42240;53.626;55.886;2023-08-30T01:11:00;74688.63;;;-145.10;100.00
56334;BME280;42240;53.626;55.886;2023-08-30T01:12:56;74690.59;;;-145.10;100.00
56334;BME280;42240;53.626;55.886;2023-08-30T01:14:52;74696.53;;;-145.10;100.00
56334;BME280;42240;53.626;55.886;2023-08-30T01:16:47;74698.50;;;-145.10;100.00
56334;BME280;42240;53.626;55.886;2023-08-30T01:18:40;74704.44;;;-145.10;100.00
56334;BME280;42240;53.626;55.886;2023-08-30T01:24:34;74704.44;;;-145.10;100.00
56334;BME280;42240;53.626;55.886;2023-08-30T01:28:20;74710.34;;;-145.10;100.00
56334;BME280;42240;53.626;55.886;2023-08-30T01:30:15;74716.28;;;-145.10;100.00
56334;BME280;42240;53.626;55.886;2023-08-30T01:32:07;74718.25;;;-145.10;100.00
56334;BME280;42240;53.626;55.886;2023-08-30T01:33:59;74724.19;;;-145.10;100.00
56334;BME280;42240;53.626;55.886;2023-08-30T01:35:56;74730.13;;;-145.10;100.00
56334;BME280;42240;53.626;55.886;2023-08-30T01:37:49;74732.09;;;-145.10;100.00
56334;BME280;42240;53.626;55.886;2023-08-30T01:39:41;74732.09;;;-145.10;100.00
56334;BME280;42240;53.626;55.886;2023-08-30T01:41:33;74747.91;;;-145.10;100.00
56334;BME280;42240;53.626;55.886;2023-08-30T01:43:26;74734.06;;;-145.10;100.00
56334;BME280;42240;53.626;55.886;2023-08-30T01:45:20;74745.94;;;-145.10;100.00
56334;BME280;42240;53.626;55.886;2023-08-30T01:47:11;74741.97;;;-145.10;100.00
56334;BME280;42240;53.626;55.886;2023-08-30T01:49:02;74738.03;;;-145.10;100.00
56334;BME280;42240;53.626;55.886;2023-08-30T01:50:54;74741.97;;;-145.10;100.00
56334;BME280;42240;53.626;55.886;2023-08-30T01:52:50;74745.94;;;-145.10;100.00
56334;BME280;42240;53.626;55.886;2023-08-30T01:54:41;74747.91;;;-145.10;100.00
56334;BME280;42240;53.626;55.886;2023-08-30T01:56:35;74736.06;;;-145.10;100.00
56334;BME280;42240;53.626;55.886;2023-08-30T01:58:26;74724.19;;;-145.10;100.00
56334;BME280;42240;53.626;55.886;2023-08-30T02:00:17;74726.16;;;-145.10;100.00
56334;BME280;42240;53.626;55.886;2023-08-30T02:02:09;74728.16;;;-145.10;100.00
56334;BME280;42240;53.626;55.886;2023-08-30T02:04:00;74726.16;;;-145.10;100.00
56334;BME280;42240;53.626;55.886;2023-08-30T02:05:57;74730.13;;;-145.10;100.00
56334;BME280;42240;53.626;55.886;2023-08-30T02:07:58;74714.31;;;-145.10;100.00
56334;BME280;42240;53.626;55.886;2023-08-30T02:10:12;74716.28;;;-145.10;100.00
56334;BME280;42240;53.626;55.886;2023-08-30T02:12:08;74708.38;;;-145.10;100.00
56334;BME280;42240;53.626;55.886;2023-08-30T02:14:03;74702.44;;;-145.10;100.00
56334;BME280;42240;53.626;55.886;2023-08-30T02:15:58;74702.44;;;-145.10;100.00
56334;BME280;42240;53.626;55.886;2023-08-30T02:17:51;74698.50;;;-145.10;100.00
56334;BME280;42240;53.626;55.886;2023-08-30T02:19:43;74688.63;;;-145.10;100.00
56334;BME280;42240;53.626;55.886;2023-08-30T02:21:34;74682.69;;;-145.10;100.00
56334;BME280;42240;53.626;55.886;2023-08-30T02:23:26;74690.59;;;-145.10;100.00
56334;BME280;42240;53.626;55.886;2023-08-30T02:25:17;74686.63;;;-145.10;100.00
56334;BME280;42240;53.626;55.886;2023-08-30T02:27:10;74682.69;;;-145.10;100.00
56334;BME280;42240;53.626;55.886;2023-08-30T02:29:03;74670.81;;;-145.10;100.00
56334;BME280;42240;53.626;55.886;2023-08-30T02:30:54;74662.91;;;-145.10;100.00
56334;BME280;42240;53.626;55.886;2023-08-30T02:32:46;74662.91;;;-145.10;100.00
56334;BME280;42240;53.626;55.886;2023-08-30T02:34:39;74660.94;;;-145.10;100.00
56334;BME280;42240;53.626;55.886;2023-08-30T02:36:31;74653.03;;;-145.10;100.00
56334;BME280;42240;53.626;55.886;2023-08-30T02:38:22;74666.88;;;-145.10;100.00
56334;BME280;42240;53.626;55.886;2023-08-30T02:40:13;74668.84;;;-145.10;100.00
56334;BME280;42240;53.626;55.886;2023-08-30T02:42:04;74662.91;;;-145.10;100.00
56334;BME280;42240;53.626;55.886;2023-08-30T02:43:56;74658.97;;;-145.10;100.00
56334;BME280;42240;53.626;55.886;2023-08-30T02:45:47;74660.94;;;-145.10;100.00
56334;BME280;42240;53.626;55.886;2023-08-30T02:47:39;74662.91;;;-145.10;100.00
56334;BME280;42240;53.626;55.886;2023-08-30T02:49:30;74662.91;;;-145.10;100.00
56334;BME280;42240;53.626;55.886;2023-08-30T02:51:21;74660.94;;;-145.10;100.00
56334;BME280;42240;53.626;55.886;2023-08-30T02:53:13;74666.88;;;-145.10;100.00
56334;BME280;42240;53.626;55.886;2023-08-30T02:55:05;74662.91;;;-145.10;100.00
56334;BME280;42240;53.626;55.886;2023-08-30T02:56:56;74666.88;;;-145.10;100.00
56334;BME280;42240;53.626;55.886;2023-08-30T02:58:47;74660.94;;;-145.10;100.00
56334;BME280;42240;53.626;55.886;2023-08-30T03:00:39;74676.75;;;-145.10;100.00
56334;BME280;42240;53.626;55.886;2023-08-30T03:02:32;74686.63;;;-145.10;100.00
56334;BME280;42240;53.626;55.886;2023-08-30T03:04:27;74686.63;;;-145.10;100.00
56334;BME280;42240;53.626;55.886;2023-08-30T03:06:18;74670.81;;;-145.10;100.00
56334;BME280;42240;53.626;55.886;2023-08-30T03:08:09;74704.44;;;-145.10;100.00
56334;BME280;42240;53.626;55.886;2023-08-30T03:10:01;74712.34;;;-145.10;100.00
56334;BME280;42240;53.626;55.886;2023-08-30T03:11:55;74700.47;;;-145.10;100.00
56334;BME280;42240;53.626;55.886;2023-08-30T03:13:46;74694.53;;;-145.10;100.00
56334;BME280;42240;53.626;55.886;2023-08-30T03:15:37;74686.63;;;-145.10;100.00
56334;BME280;42240;53.626;55.886;2023-08-30T03:17:29;74682.69;;;-145.10;100.00
56334;BME280;42240;53.626;55.886;2023-08-30T03:19:22;74662.91;;;-145.10;100.00
56334;BME280;42240;53.626;55.886;2023-08-30T03:21:14;74672.81;;;-145.10;100.00
56334;BME280;42240;53.626;55.886;2023-08-30T03:23:05;74680.72;;;-145.10;100.00
56334;BME280;42240;53.626;55.886;2023-08-30T03:24:57;74668.84;;;-145.10;100.00
56334;BME280;42240;53.626;55.886;2023-08-30T03:26:48;74682.69;;;-145.10;100.00
56334;BME280;42240;53.626;55.886;2023-08-30T03:28:43;74686.63;;;-145.10;100.00
56334;BME280;42240;53.626;55.886;2023-08-30T03:30:35;74696.53;;;-145.10;100.00
56334;BME280;42240;53.626;55.886;2023-08-30T03:32:26;74706.41;;;-145.10;100.00
56334;BME280;42240;53.626;55.886;2023-08-30T03:34:18;74702.44;;;-145.10;100.00
56334;BME280;42240;53.626;55.886;2023-08-30T03:36:10;74706.41;;;-145.10;100.00
56334;BME280;42240;53.626;55.886;2023-08-30T03:38:01;74718.25;;;-145.10;100.00
56334;BME280;42240;53.626;55.886;2023-08-30T03:39:52;74722.22;;;-145.10;100.00
56334;BME280;42240;53.626;55.886;2023-08-30T03:41:44;74714.31;;;-145.10;100.00
56334;BME280;42240;53.626;55.886;2023-08-30T03:43:36;74708.38;;;-145.10;100.00
56334;BME280;42240;53.626;55.886;2023-08-30T03:45:29;74696.53;;;-145.10;100.00
56334;BME280;42240;53.626;55.886;2023-08-30T03:47:21;74688.63;;;-145.10;100.00
56334;BME280;42240;53.626;55.886;2023-08-30T03:49:12;74670.81;;;-145.10;100.00
56334;BME280;42240;53.626;55.886;2023-08-30T03:51:03;74657.00;;;-145.10;100.00
56334;BME280;42240;53.626;55.886;2023-08-30T03:52:56;74655.00;;;-145.10;100.00
56334;BME280;42240;53.626;55.886;2023-08-30T03:54:47;74645.13;;;-145.10;100.00
56334;BME280;42240;53.626;55.886;2023-08-30T03:56:40;74623.38;;;-145.10;100.00
56334;BME280;42240;53.626;55.886;2023-08-30T03:58:31;74603.63;;;-145.10;100.00
56334;BME280;42240;53.626;55.886;2023-08-30T04:00:22;74585.84;;;-145.10;100.00
56334;BME280;42240;53.626;55.886;2023-08-30T04:02:13;74587.81;;;-145.10;100.00
56334;BME280;42240;53.626;55.886;2023-08-30T04:04:08;74575.97;;;-145.10;100.00
56334;BME280;42240;53.626;55.886;2023-08-30T04:05:59;74603.63;;;-145.10;100.00
56334;BME280;42240;53.626;55.886;2023-08-30T04:07:50;74615.47;;;-145.10;100.00
56334;BME280;42240;53.626;55.886;2023-08-30T04:09:42;74615.47;;;-145.10;100.00
56334;BME280;42240;53.626;55.886;2023-08-30T04:11:33;74609.56;;;-145.10;100.00
56334;BME280;42240;53.626;55.886;2023-08-30T04:13:25;74609.56;;;-145.10;100.00
56334;BME280;42240;53.626;55.886;2023-08-30T04:15:16;74627.34;;;-145.10;100.00
56334;BME280;42240;53.626;55.886;2023-08-30T04:17:08;74609.56;;;-145.10;100.00
56334;BME280;42240;53.626;55.886;2023-08-30T04:18:59;74611.53;;;-145.10;100.00
56334;BME280;42240;53.626;55.886;2023-08-30T04:20:50;74621.41;;;-145.10;100.00
56334;BME280;42240;53.626;55.886;2023-08-30T04:22:42;74635.25;;;-145.10;100.00
56334;BME280;42240;53.626;55.886;2023-08-30T04:24:33;74623.38;;;-145.10;100.00
56334;BME280;42240;53.626;55.886;2023-08-30T04:26:24;74625.38;;;-145.10;100.00
56334;BME280;42240;53.626;55.886;2023-08-30T04:28:15;74621.41;;;-145.10;100.00
56334;BME280;42240;53.626;55.886;2023-08-30T04:30:09;74625.38;;;-145.10;100.00
56334;BME280;42240;53.626;55.886;2023-08-30T04:32:00;74609.56;;;-145.10;100.00
56334;BME280;42240;53.626;55.886;2023-08-30T04:33:52;74613.50;;;-145.10;100.00
56334;BME280;42240;53.626;55.886;2023-08-30T04:35:53;74623.38;;;-145.10;100.00
56334;BME280;42240;53.626;55.886;2023-08-30T04:37:44;74625.38;;;-145.10;100.00
56334;BME280;42240;53.626;55.886;2023-08-30T04:39:36;74615.47;;;-145.10;100.00
56334;BME280;42240;53.626;55.886;2023-08-30T04:41:27;74623.38;;;-145.10;100.00
56334;BME280;42240;53.626;55.886;2023-08-30T04:43:19;74623.38;;;-145.10;100.00
56334;BME280;42240;53.626;55.886;2023-08-30T04:45:10;74613.50;;;-145.10;100.00
56334;BME280;42240;53.626;55.886;2023-08-30T04:47:01;74595.72;;;-145.10;100.00
56334;BME280;42240;53.626;55.886;2023-08-30T04:48:54;74593.75;;;-145.10;100.00
56334;BME280;42240;53.626;55.886;2023-08-30T04:50:47;74585.84;;;-145.10;100.00
56334;BME280;42240;53.626;55.886;2023-08-30T04:52:39;74572.00;;;-145.10;100.00
56334;BME280;42240;53.626;55.886;2023-08-30T04:54:30;74573.97;;;-145.10;100.00
56334;BME280;42240;53.626;55.886;2023-08-30T04:56:21;74564.09;;;-145.10;100.00
56334;BME280;42240;53.626;55.886;2023-08-30T04:58:12;74528.53;;;-145.10;100.00
56334;BME280;42240;53.626;55.886;2023-08-30T05:00:04;74504.81;;;-145.10;100.00
56334;BME280;42240;53.626;55.886;2023-08-30T05:01:57;74508.75;;;-145.10;100.00
56334;BME280;42240;53.626;55.886;2023-08-30T05:03:50;74504.81;;;-145.10;100.00
56334;BME280;42240;53.626;55.886;2023-08-30T05:05:44;74461.31;;;-145.10;100.00
56334;BME280;42240;53.626;55.886;2023-08-30T05:07:38;74473.19;;;-145.10;100.00
56334;BME280;42240;53.626;55.886;2023-08-30T05:09:30;74451.44;;;-145.10;100.00
56334;BME280;42240;53.626;55.886;2023-08-30T05:11:25;74449.47;;;-145.10;100.00
56334;BME280;42240;53.626;55.886;2023-08-30T05:13:16;74453.41;;;-145.10;100.00
56334;BME280;42240;53.626;55.886;2023-08-30T05:15:08;74435.63;;;-145.10;100.00
56334;BME280;42240;53.626;55.886;2023-08-30T05:17:00;74411.91;;;-145.10;100.00
56334;BME280;42240;53.626;55.886;2023-08-30T05:18:51;74388.19;;;-145.10;100.00
56334;BME280;42240;53.626;55.886;2023-08-30T05:20:43;74330.88;;;-145.10;100.00
56334;BME280;42240;53.626;55.886;2023-08-30T05:22:34;74319.03;;;-145.10;100.00
56334;BME280;42240;53.626;55.886;2023-08-30T05:24:26;74332.88;;;-145.10;100.00
56334;BME280;42240;53.626;55.886;2023-08-30T05:26:18;74340.78;;;-145.10;100.00
56334;BME280;42240;53.626;55.886;2023-08-30T05:28:10;74301.25;;;-145.10;100.00
56334;BME280;42240;53.626;55.886;2023-08-30T05:30:01;74303.22;;;-145.10;100.00
56334;BME280;42240;53.626;55.886;2023-08-30T05:31:56;74334.84;;;-145.10;100.00
56334;BME280;42240;53.626;55.886;2023-08-30T05:33:59;74382.28;;;-145.10;100.00
56334;BME280;42240;53.626;55.886;2023-08-30T05:35:53;74372.41;;;-145.10;100.00
56334;BME280;42240;53.626;55.886;2023-08-30T05:38:12;74251.84;;;-145.10;100.00
56334;BME280;42240;53.626;55.886;2023-08-30T05:40:23;74180.69;;;-145.10;100.00
56334;BME280;42240;53.626;55.886;2023-08-30T05:42:15;74141.16;;;-145.10;100.00
56334;BME280;42240;53.626;55.886;2023-08-30T05:44:06;74052.25;;;-145.10;100.00
56334;BME280;42240;53.626;55.886;2023-08-30T05:45:58;74089.78;;;-145.10;100.00
56334;BME280;42240;53.626;55.886;2023-08-30T05:47:54;74164.88;;;-145.10;100.00
56334;BME280;42240;53.626;55.886;2023-08-30T05:49:45;74141.16;;;-145.10;100.00
56334;BME280;42240;53.626;55.886;2023-08-30T05:51:37;74149.06;;;-145.10;100.00
56334;BME280;42240;53.626;55.886;2023-08-30T05:53:28;74153.03;;;-145.10;100.00
56334;BME280;42240;53.626;55.886;2023-08-30T05:55:20;74052.25;;;-145.10;100.00
56334;BME280;42240;53.626;55.886;2023-08-30T05:57:30;73801.28;;;-145.10;100.00
56334;BME280;42240;53.626;55.886;2023-08-30T05:59:24;73670.88;;;-145.10;99.38
56334;BME280;42240;53.626;55.886;2023-08-30T06:01:17;73597.75;;;-145.10;94.98
56334;BME280;42240;53.626;55.886;2023-08-30T06:03:10;73487.09;;;-145.10;89.43
56334;BME280;42240;53.626;55.886;2023-08-30T06:05:02;73516.75;;;-145.10;83.27
56334;BME280;42240;53.626;55.886;2023-08-30T06:06:58;73686.69;;;-145.10;87.17
56334;BME280;42240;53.626;55.886;2023-08-30T06:08:51;73544.41;;;-145.10;84.79
56334;BME280;42240;53.626;55.886;2023-08-30T06:10:43;73607.63;;;-145.10;85.80
56334;BME280;42240;53.626;55.886;2023-08-30T06:12:35;73706.44;;;-145.10;88.38
56334;BME280;42240;53.626;55.886;2023-08-30T06:14:27;73838.81;;;-145.10;91.99
56334;BME280;42240;53.626;55.886;2023-08-30T06:16:18;73947.50;;;-145.10;97.28
56334;BME280;42240;53.626;55.886;2023-08-30T06:18:09;74034.47;;;-145.10;100.00
56334;BME280;42240;53.626;55.886;2023-08-30T06:20:01;74081.88;;;-145.10;100.00
56334;BME280;42240;53.626;55.886;2023-08-30T06:21:53;74105.59;;;-145.10;100.00
56334;BME280;42240;53.626;55.886;2023-08-30T06:23:44;74111.53;;;-145.10;100.00
56334;BME280;42240;53.626;55.886;2023-08-30T06:25:35;74135.25;;;-145.10;100.00
56334;BME280;42240;53.626;55.886;2023-08-30T06:27:27;74091.78;;;-145.10;100.00
56334;BME280;42240;53.626;55.886;2023-08-30T06:29:18;74002.84;;;-145.10;100.00
56334;BME280;42240;53.626;55.886;2023-08-30T06:31:09;73911.94;;;-145.10;100.00
56334;BME280;42240;53.626;55.886;2023-08-30T06:33:01;73959.38;;;-145.10;100.00
56334;BME280;42240;53.626;55.886;2023-08-30T06:34:52;73983.09;;;-145.10;100.00
56334;BME280;42240;53.626;55.886;2023-08-30T06:36:44;74038.41;;;-145.10;100.00
56334;BME280;42240;53.626;55.886;2023-08-30T06:38:35;73998.88;;;-145.10;100.00
56334;BME280;42240;53.626;55.886;2023-08-30T06:40:26;73979.13;;;-145.10;100.00
56334;BME280;42240;53.626;55.886;2023-08-30T06:42:17;73971.22;;;-145.10;100.00
56334;BME280;42240;53.626;55.886;2023-08-30T06:44:08;74022.59;;;-145.10;100.00
56334;BME280;42240;53.626;55.886;2023-08-30T06:46:00;73963.31;;;-145.10;100.00
56334;BME280;42240;53.626;55.886;2023-08-30T06:47:51;73923.78;;;-145.10;100.00
56334;BME280;42240;53.626;55.886;2023-08-30T06:49:45;73929.72;;;-145.10;99.95
56334;BME280;42240;53.626;55.886;2023-08-30T06:51:36;73941.59;;;-145.10;100.00
56334;BME280;42240;53.626;55.886;2023-08-30T06:53:28;73929.72;;;-145.10;100.00
56334;BME280;42240;53.626;55.886;2023-08-30T06:55:19;73900.09;;;-145.10;100.00
56334;BME280;42240;53.626;55.886;2023-08-30T06:57:11;73896.13;;;-145.10;98.14
56334;BME280;42240;53.626;55.886;2023-08-30T06:59:02;73939.59;;;-145.10;98.58
56334;BME280;42240;53.626;55.886;2023-08-30T07:00:54;73943.56;;;-145.10;99.11
56334;BME280;42240;53.626;55.886;2023-08-30T07:02:45;73971.22;;;-145.10;99.36
56334;BME280;42240;53.626;55.886;2023-08-30T07:04:37;73987.03;;;-145.10;100.00
56334;BME280;42240;53.626;55.886;2023-08-30T07:06:28;73967.28;;;-145.10;100.00
56334;BME280;42240;53.626;55.886;2023-08-30T07:08:21;73943.56;;;-145.10;100.00
56334;BME280;42240;53.626;55.886;2023-08-30T07:10:13;73991.00;;;-145.10;100.00
56334;BME280;42240;53.626;55.886;2023-08-30T07:12:04;73992.97;;;-145.10;100.00
56334;BME280;42240;53.626;55.886;2023-08-30T07:13:56;74022.59;;;-145.10;100.00
56334;BME280;42240;53.626;55.886;2023-08-30T07:15:52;74040.38;;;-145.10;100.00
56334;BME280;42240;53.626;55.886;2023-08-30T07:17:44;74052.25;;;-145.10;100.00
56334;BME280;42240;53.626;55.886;2023-08-30T07:19:56;74068.06;;;-145.10;100.00
56334;BME280;42240;53.626;55.886;2023-08-30T07:21:48;74062.13;;;-145.10;100.00
56334;BME280;42240;53.626;55.886;2023-08-30T07:23:40;74070.03;;;-145.10;100.00
56334;BME280;42240;53.626;55.886;2023-08-30T07:25:31;74042.38;;;-145.10;100.00
56334;BME280;42240;53.626;55.886;2023-08-30T07:27:27;74026.56;;;-145.10;100.00
56334;BME280;42240;53.626;55.886;2023-08-30T07:29:19;74010.75;;;-145.10;100.00
56334;BME280;42240;53.626;55.886;2023-08-30T07:31:12;73933.69;;;-145.10;100.00
56334;BME280;42240;53.626;55.886;2023-08-30T07:33:09;73949.50;;;-145.10;100.00
56334;BME280;42240;53.626;55.886;2023-08-30T07:35:00;73971.22;;;-145.10;100.00
56334;BME280;42240;53.626;55.886;2023-08-30T07:36:53;73983.09;;;-145.10;100.00
56334;BME280;42240;53.626;55.886;2023-08-30T07:38:45;74002.84;;;-145.10;100.00
56334;BME280;42240;53.626;55.886;2023-08-30T07:40:36;73983.09;;;-145.10;100.00
56334;BME280;42240;53.626;55.886;2023-08-30T07:42:27;73935.66;;;-145.10;100.00
56334;BME280;42240;53.626;55.886;2023-08-30T07:44:19;73872.41;;;-145.10;100.00
56334;BME280;42240;53.626;55.886;2023-08-30T07:46:11;73931.69;;;-145.10;100.00
56334;BME280;42240;53.626;55.886;2023-08-30T07:48:03;73947.50;;;-145.10;100.00
56334;BME280;42240;53.626;55.886;2023-08-30T07:49:54;73947.50;;;-145.10;100.00
56334;BME280;42240;53.626;55.886;2023-08-30T07:51:46;73977.16;;;-145.10;100.00
56334;BME280;42240;53.626;55.886;2023-08-30T07:53:37;73987.03;;;-145.10;100.00
56334;BME280;42240;53.626;55.886;2023-08-30T07:55:28;74006.78;;;-145.10;100.00
56334;BME280;42240;53.626;55.886;2023-08-30T07:57:21;74022.59;;;-145.10;100.00
56334;BME280;42240;53.626;55.886;2023-08-30T07:59:12;74020.63;;;-145.10;100.00
56334;BME280;42240;53.626;55.886;2023-08-30T08:01:03;74022.59;;;-145.10;100.00
56334;BME280;42240;53.626;55.886;2023-08-30T08:02:55;73992.97;;;-145.10;100.00
56334;BME280;42240;53.626;55.886;2023-08-30T08:04:47;73939.59;;;-145.10;100.00
56334;BME280;42240;53.626;55.886;2023-08-30T08:06:41;73911.94;;;-145.10;100.00
56334;BME280;42240;53.626;55.886;2023-08-30T08:08:46;73921.81;;;-145.10;98.78
56334;BME280;42240;53.626;55.886;2023-08-30T08:10:37;73935.66;;;-145.10;98.08
56334;BME280;42240;53.626;55.886;2023-08-30T08:12:29;73959.38;;;-145.10;98.67
56334;BME280;42240;53.626;55.886;2023-08-30T08:14:20;73931.69;;;-145.10;99.66
56334;BME280;42240;53.626;55.886;2023-08-30T08:16:12;73931.69;;;-145.10;99.89
56334;BME280;42240;53.626;55.886;2023-08-30T08:18:04;73911.94;;;-145.10;100.00
56334;BME280;42240;53.626;55.886;2023-08-30T08:19:55;73927.75;;;-145.10;99.17
56334;BME280;42240;53.626;55.886;2023-08-30T08:21:47;73929.72;;;-145.10;99.25
56334;BME280;42240;53.626;55.886;2023-08-30T08:23:38;73935.66;;;-145.10;99.41
56334;BME280;42240;53.626;55.886;2023-08-30T08:25:32;73904.03;;;-145.10;98.32
56334;BME280;42240;53.626;55.886;2023-08-30T08:27:26;73892.19;;;-145.10;98.78
56334;BME280;42240;53.626;55.886;2023-08-30T08:29:22;73866.50;;;-145.10;98.21
56334;BME280;42240;53.626;55.886;2023-08-30T08:31:14;73864.50;;;-145.10;96.08
56334;BME280;42240;53.626;55.886;2023-08-30T08:33:05;73825.00;;;-145.10;95.54
56334;BME280;42240;53.626;55.886;2023-08-30T08:34:56;73801.28;;;-145.10;93.56
56334;BME280;42240;53.626;55.886;2023-08-30T08:36:48;73846.72;;;-145.10;91.39
56334;BME280;42240;53.626;55.886;2023-08-30T08:38:39;73842.78;;;-145.10;93.00
56334;BME280;42240;53.626;55.886;2023-08-30T08:40:31;73836.84;;;-145.10;92.48
56334;BME280;42240;53.626;55.886;2023-08-30T08:42:30;73809.19;;;-145.10;93.52
56334;BME280;42240;53.626;55.886;2023-08-30T08:44:21;73793.38;;;-145.10;92.68
56334;BME280;42240;53.626;55.886;2023-08-30T08:46:14;73797.34;;;-145.10;91.34
56334;BME280;42240;53.626;55.886;2023-08-30T08:48:08;73801.28;;;-145.10;91.92
56334;BME280;42240;53.626;55.886;2023-08-30T08:50:01;73819.06;;;-145.10;92.50
56334;BME280;42240;53.626;55.886;2023-08-30T08:51:54;73803.25;;;-145.10;92.06
56334;BME280;42240;53.626;55.886;2023-08-30T08:53:47;73775.59;;;-145.10;92.31
56334;BME280;42240;53.626;55.886;2023-08-30T08:55:39;73773.63;;;-145.10;92.98
56334;BME280;42240;53.626;55.886;2023-08-30T08:57:31;73771.66;;;-145.10;90.41
56334;BME280;42240;53.626;55.886;2023-08-30T08:59:23;73813.13;;;-145.10;91.97
56334;BME280;42240;53.626;55.886;2023-08-30T09:01:14;73828.94;;;-145.10;93.28
56334;BME280;42240;53.626;55.886;2023-08-30T09:03:24;73809.19;;;-145.10;92.56
56334;BME280;42240;53.626;55.886;2023-08-30T09:05:15;73787.44;;;-145.10;93.29
56334;BME280;42240;53.626;55.886;2023-08-30T09:07:07;73720.25;;;-145.10;92.47
56334;BME280;42240;53.626;55.886;2023-08-30T09:08:59;73728.16;;;-145.10;90.87
56334;BME280;42240;53.626;55.886;2023-08-30T09:10:51;73769.66;;;-145.10;89.69
56334;BME280;42240;53.626;55.886;2023-08-30T09:12:43;73821.03;;;-145.10;89.55
56334;BME280;42240;53.626;55.886;2023-08-30T09:14:40;73834.88;;;-145.10;90.70
56334;BME280;42240;53.626;55.886;2023-08-30T09:16:32;73876.38;;;-145.10;92.90
56334;BME280;42240;53.626;55.886;2023-08-30T09:18:23;73911.94;;;-145.10;93.62
56334;BME280;42240;53.626;55.886;2023-08-30T09:20:18;73931.69;;;-145.10;95.13
56334;BME280;42240;53.626;55.886;2023-08-30T09:22:11;73963.31;;;-145.10;95.70
56334;BME280;42240;53.626;55.886;2023-08-30T09:24:04;73963.31;;;-145.10;95.87
56334;BME280;42240;53.626;55.886;2023-08-30T09:25:56;73943.56;;;-145.10;96.74
56334;BME280;42240;53.626;55.886;2023-08-30T09:27:47;73923.78;;;-145.10;96.69
56334;BME280;42240;53.626;55.886;2023-08-30T09:29:39;73909.97;;;-145.10;94.47
56334;BME280;42240;53.626;55.886;2023-08-30T09:31:37;73913.91;;;-145.10;93.76
56334;BME280;42240;53.626;55.886;2023-08-30T09:33:29;73896.13;;;-145.10;93.01